sensor_id;sensor_type;location;lat;lon;timestamp;temperature;humidity
12291;DHT22;6208;48.956;9.076;2022-12-18T00:01:46;-3.30;92.40
12291;DHT22;6208;48.956;9.076;2022-12-18T00:04:25;-6.10;92.20
12291;DHT22;6208;48.956;9.076;2022-12-18T00:07:09;-6.50;93.10
12291;DHT22;6208;48.956;9.076;2022-12-18T00:09:53;-5.40;94.30
12291;DHT22;6208;48.956;9.076;2022-12-18T00:12:37;-6.20;93.30
12291;DHT22;6208;48.956;9.076;2022-12-18T00:15:21;-6.20;93.10
12291;DHT22;6208;48.956;9.076;2022-12-18T00:18:06;-6.30;92.70
12291;DHT22;6208;48.956;9.076;2022-12-18T00:20:50;-6.40;92.80
12291;DHT22;6208;48.956;9.076;2022-12-18T00:23:35;-6.60;93.70
12291;DHT22;6208;48.956;9.076;2022-12-18T00:26:23;-6.60;94.00
12291;DHT22;6208;48.956;9.076;2022-12-18T00:29:11;-6.30;93.30
12291;DHT22;6208;48.956;9.076;2022-12-18T00:31:57;-6.10;92.50
12291;DHT22;6208;48.956;9.076;2022-12-18T00:34:41;-5.90;91.60
12291;DHT22;6208;48.956;9.076;2022-12-18T00:37:25;-6.10;91.30
12291;DHT22;6208;48.956;9.076;2022-12-18T00:40:10;-6.10;92.10
12291;DHT22;6208;48.956;9.076;2022-12-18T00:42:54;-6.00;91.80
12291;DHT22;6208;48.956;9.076;2022-12-18T00:45:41;-6.10;91.80
12291;DHT22;6208;48.956;9.076;2022-12-18T00:48:25;-5.90;91.00
12291;DHT22;6208;48.956;9.076;2022-12-18T00:51:09;-6.10;90.90
12291;DHT22;6208;48.956;9.076;2022-12-18T00:53:54;-6.20;91.50
12291;DHT22;6208;48.956;9.076;2022-12-18T00:56:39;-6.30;91.30
12291;DHT22;6208;48.956;9.076;2022-12-18T00:59:24;-6.20;91.50
12291;DHT22;6208;48.956;9.076;2022-12-18T01:02:08;-6.30;91.70
12291;DHT22;6208;48.956;9.076;2022-12-18T01:04:52;-6.20;91.70
12291;DHT22;6208;48.956;9.076;2022-12-18T01:07:37;-6.10;90.70
12291;DHT22;6208;48.956;9.076;2022-12-18T01:10:21;-6.10;91.10
12291;DHT22;6208;48.956;9.076;2022-12-18T01:13:06;-6.10;91.30
12291;DHT22;6208;48.956;9.076;2022-12-18T01:15:50;-6.30;91.40
12291;DHT22;6208;48.956;9.076;2022-12-18T01:18:35;-6.70;92.10
12291;DHT22;6208;48.956;9.076;2022-12-18T01:21:20;-7.00;93.40
12291;DHT22;6208;48.956;9.076;2022-12-18T01:24:05;-7.30;94.20
12291;DHT22;6208;48.956;9.076;2022-12-18T01:26:50;-7.00;93.30
12291;DHT22;6208;48.956;9.076;2022-12-18T01:29:34;-6.60;92.10
12291;DHT22;6208;48.956;9.076;2022-12-18T01:32:18;-6.40;90.80
12291;DHT22;6208;48.956;9.076;2022-12-18T01:35:03;-6.30;90.40
12291;DHT22;6208;48.956;9.076;2022-12-18T01:37:48;-6.20;88.20
12291;DHT22;6208;48.956;9.076;2022-12-18T01:40:32;-6.20;87.80
12291;DHT22;6208;48.956;9.076;2022-12-18T01:43:16;-6.30;87.50
12291;DHT22;6208;48.956;9.076;2022-12-18T01:46:00;-5.00;90.00
12291;DHT22;6208;48.956;9.076;2022-12-18T01:48:48;-6.40;89.10
12291;DHT22;6208;48.956;9.076;2022-12-18T01:51:33;-6.20;89.20
12291;DHT22;6208;48.956;9.076;2022-12-18T01:54:17;-6.30;89.60
12291;DHT22;6208;48.956;9.076;2022-12-18T01:57:02;-6.60;90.50
12291;DHT22;6208;48.956;9.076;2022-12-18T01:59:51;-5.40;93.00
12291;DHT22;6208;48.956;9.076;2022-12-18T02:02:36;-7.40;93.30
12291;DHT22;6208;48.956;9.076;2022-12-18T02:05:50;-7.40;94.10
12291;DHT22;6208;48.956;9.076;2022-12-18T02:14:44;-6.80;92.50
12291;DHT22;6208;48.956;9.076;2022-12-18T02:17:45;-6.70;92.00
12291;DHT22;6208;48.956;9.076;2022-12-18T02:20:40;-6.40;91.20
12291;DHT22;6208;48.956;9.076;2022-12-18T02:26:49;-6.20;89.50
12291;DHT22;6208;48.956;9.076;2022-12-18T02:29:52;-6.30;89.30
12291;DHT22;6208;48.956;9.076;2022-12-18T02:32:40;-6.40;90.10
12291;DHT22;6208;48.956;9.076;2022-12-18T02:35:29;-6.70;91.70
12291;DHT22;6208;48.956;9.076;2022-12-18T02:38:14;-6.90;92.10
12291;DHT22;6208;48.956;9.076;2022-12-18T02:41:00;-7.00;92.20
12291;DHT22;6208;48.956;9.076;2022-12-18T02:43:49;-6.90;92.60
12291;DHT22;6208;48.956;9.076;2022-12-18T02:46:36;-6.70;92.50
12291;DHT22;6208;48.956;9.076;2022-12-18T02:49:42;-5.00;92.90
12291;DHT22;6208;48.956;9.076;2022-12-18T02:58:25;-6.60;91.80
12291;DHT22;6208;48.956;9.076;2022-12-18T03:01:21;-6.90;92.90
12291;DHT22;6208;48.956;9.076;2022-12-18T03:04:16;-7.00;92.70
12291;DHT22;6208;48.956;9.076;2022-12-18T03:07:07;-7.30;92.80
12291;DHT22;6208;48.956;9.076;2022-12-18T03:09:53;-7.60;93.30
12291;DHT22;6208;48.956;9.076;2022-12-18T03:12:47;-7.60;94.00
12291;DHT22;6208;48.956;9.076;2022-12-18T03:15:46;-7.50;94.00
12291;DHT22;6208;48.956;9.076;2022-12-18T03:18:51;-7.40;93.90
12291;DHT22;6208;48.956;9.076;2022-12-18T03:21:49;-7.40;93.80
12291;DHT22;6208;48.956;9.076;2022-12-18T03:24:35;-7.40;94.10
12291;DHT22;6208;48.956;9.076;2022-12-18T03:27:24;-7.30;93.90
12291;DHT22;6208;48.956;9.076;2022-12-18T03:30:11;-6.90;93.50
12291;DHT22;6208;48.956;9.076;2022-12-18T03:33:16;-6.70;92.70
12291;DHT22;6208;48.956;9.076;2022-12-18T03:36:03;-6.50;91.80
12291;DHT22;6208;48.956;9.076;2022-12-18T03:38:48;-6.60;92.70
12291;DHT22;6208;48.956;9.076;2022-12-18T03:41:42;-6.70;92.20
12291;DHT22;6208;48.956;9.076;2022-12-18T03:47:59;-7.30;92.90
12291;DHT22;6208;48.956;9.076;2022-12-18T03:50:59;-7.50;93.30
12291;DHT22;6208;48.956;9.076;2022-12-18T03:54:00;-7.30;93.50
12291;DHT22;6208;48.956;9.076;2022-12-18T03:56:48;-7.20;93.40
12291;DHT22;6208;48.956;9.076;2022-12-18T03:59:35;-7.30;93.50
12291;DHT22;6208;48.956;9.076;2022-12-18T04:02:22;-7.40;93.30
12291;DHT22;6208;48.956;9.076;2022-12-18T04:05:08;-7.50;93.20
12291;DHT22;6208;48.956;9.076;2022-12-18T04:07:55;-7.60;93.40
12291;DHT22;6208;48.956;9.076;2022-12-18T04:10:40;-7.40;93.80
12291;DHT22;6208;48.956;9.076;2022-12-18T04:13:35;-7.50;94.00
12291;DHT22;6208;48.956;9.076;2022-12-18T04:16:20;-7.50;93.90
12291;DHT22;6208;48.956;9.076;2022-12-18T04:19:04;-7.30;93.50
12291;DHT22;6208;48.956;9.076;2022-12-18T04:21:49;-7.00;93.10
12291;DHT22;6208;48.956;9.076;2022-12-18T04:24:33;-6.80;92.20
12291;DHT22;6208;48.956;9.076;2022-12-18T04:27:17;-6.70;91.90
12291;DHT22;6208;48.956;9.076;2022-12-18T04:30:02;-6.60;91.20
12291;DHT22;6208;48.956;9.076;2022-12-18T04:32:47;-6.60;91.10
12291;DHT22;6208;48.956;9.076;2022-12-18T04:35:30;-6.70;91.30
12291;DHT22;6208;48.956;9.076;2022-12-18T04:38:15;-6.50;91.20
12291;DHT22;6208;48.956;9.076;2022-12-18T04:40:59;-6.50;90.60
12291;DHT22;6208;48.956;9.076;2022-12-18T04:43:43;-6.60;91.30
12291;DHT22;6208;48.956;9.076;2022-12-18T04:46:28;-6.70;91.30
12291;DHT22;6208;48.956;9.076;2022-12-18T04:49:12;-6.60;91.90
12291;DHT22;6208;48.956;9.076;2022-12-18T04:51:56;-6.40;91.10
12291;DHT22;6208;48.956;9.076;2022-12-18T04:54:40;-6.40;89.70
12291;DHT22;6208;48.956;9.076;2022-12-18T04:57:24;-6.50;89.20
12291;DHT22;6208;48.956;9.076;2022-12-18T05:00:09;-6.40;90.10
12291;DHT22;6208;48.956;9.076;2022-12-18T05:02:53;-6.60;90.30
12291;DHT22;6208;48.956;9.076;2022-12-18T05:05:37;-6.90;92.00
12291;DHT22;6208;48.956;9.076;2022-12-18T05:08:21;-6.70;91.90
12291;DHT22;6208;48.956;9.076;2022-12-18T05:11:09;-6.70;91.10
12291;DHT22;6208;48.956;9.076;2022-12-18T05:13:54;-7.00;90.50
12291;DHT22;6208;48.956;9.076;2022-12-18T05:16:41;-7.30;91.30
12291;DHT22;6208;48.956;9.076;2022-12-18T05:19:25;-7.50;92.40
12291;DHT22;6208;48.956;9.076;2022-12-18T05:22:09;-7.60;93.00
12291;DHT22;6208;48.956;9.076;2022-12-18T05:24:54;-7.50;93.70
12291;DHT22;6208;48.956;9.076;2022-12-18T05:27:38;-7.50;93.30
12291;DHT22;6208;48.956;9.076;2022-12-18T05:30:22;-7.80;93.30
12291;DHT22;6208;48.956;9.076;2022-12-18T05:33:06;-7.80;93.80
12291;DHT22;6208;48.956;9.076;2022-12-18T05:35:55;-7.60;93.50
12291;DHT22;6208;48.956;9.076;2022-12-18T05:38:39;-7.20;93.10
12291;DHT22;6208;48.956;9.076;2022-12-18T05:41:24;-6.90;92.30
12291;DHT22;6208;48.956;9.076;2022-12-18T05:44:08;-6.70;91.60
12291;DHT22;6208;48.956;9.076;2022-12-18T05:46:52;-6.60;91.10
12291;DHT22;6208;48.956;9.076;2022-12-18T05:49:36;-4.70;91.50
12291;DHT22;6208;48.956;9.076;2022-12-18T05:52:20;-7.40;90.60
12291;DHT22;6208;48.956;9.076;2022-12-18T05:55:05;-6.60;90.70
12291;DHT22;6208;48.956;9.076;2022-12-18T05:57:49;-6.70;90.20
12291;DHT22;6208;48.956;9.076;2022-12-18T06:00:37;-6.80;91.00
12291;DHT22;6208;48.956;9.076;2022-12-18T06:03:25;-6.70;91.00
12291;DHT22;6208;48.956;9.076;2022-12-18T06:06:14;-6.90;91.30
12291;DHT22;6208;48.956;9.076;2022-12-18T06:08:58;-6.90;91.50
12291;DHT22;6208;48.956;9.076;2022-12-18T06:11:43;-7.00;91.60
12291;DHT22;6208;48.956;9.076;2022-12-18T06:14:27;-6.80;91.30
12291;DHT22;6208;48.956;9.076;2022-12-18T06:17:11;-6.70;91.20
12291;DHT22;6208;48.956;9.076;2022-12-18T06:19:56;-6.50;90.70
12291;DHT22;6208;48.956;9.076;2022-12-18T06:22:40;-6.40;90.70
12291;DHT22;6208;48.956;9.076;2022-12-18T06:25:24;-6.60;91.30
12291;DHT22;6208;48.956;9.076;2022-12-18T06:28:08;-4.40;92.70
12291;DHT22;6208;48.956;9.076;2022-12-18T06:30:52;-6.80;92.10
12291;DHT22;6208;48.956;9.076;2022-12-18T06:33:37;-7.00;92.80
12291;DHT22;6208;48.956;9.076;2022-12-18T06:36:22;-6.90;92.90
12291;DHT22;6208;48.956;9.076;2022-12-18T06:39:06;-7.00;91.90
12291;DHT22;6208;48.956;9.076;2022-12-18T06:41:50;-7.00;92.10
12291;DHT22;6208;48.956;9.076;2022-12-18T06:44:34;-6.70;91.50
12291;DHT22;6208;48.956;9.076;2022-12-18T06:47:18;-6.60;91.40
12291;DHT22;6208;48.956;9.076;2022-12-18T06:50:03;-6.50;91.10
12291;DHT22;6208;48.956;9.076;2022-12-18T06:52:47;-6.50;91.00
12291;DHT22;6208;48.956;9.076;2022-12-18T06:55:31;-6.50;91.10
12291;DHT22;6208;48.956;9.076;2022-12-18T06:58:15;-6.50;91.30
12291;DHT22;6208;48.956;9.076;2022-12-18T07:01:05;-6.50;90.80
12291;DHT22;6208;48.956;9.076;2022-12-18T07:03:54;-6.60;90.40
12291;DHT22;6208;48.956;9.076;2022-12-18T07:06:39;-6.70;91.30
12291;DHT22;6208;48.956;9.076;2022-12-18T07:09:23;-6.70;91.60
12291;DHT22;6208;48.956;9.076;2022-12-18T07:12:07;-6.60;91.90
12291;DHT22;6208;48.956;9.076;2022-12-18T07:14:51;-6.50;92.00
12291;DHT22;6208;48.956;9.076;2022-12-18T07:17:36;-6.70;91.90
12291;DHT22;6208;48.956;9.076;2022-12-18T07:20:20;-5.90;92.70
12291;DHT22;6208;48.956;9.076;2022-12-18T07:23:05;-6.90;92.70
12291;DHT22;6208;48.956;9.076;2022-12-18T07:25:49;-6.80;92.70
12291;DHT22;6208;48.956;9.076;2022-12-18T07:28:34;-6.70;93.20
12291;DHT22;6208;48.956;9.076;2022-12-18T07:31:20;-8.50;91.80
12291;DHT22;6208;48.956;9.076;2022-12-18T07:34:05;-5.90;92.40
12291;DHT22;6208;48.956;9.076;2022-12-18T07:36:49;-7.00;92.70
12291;DHT22;6208;48.956;9.076;2022-12-18T07:39:33;-7.30;93.60
12291;DHT22;6208;48.956;9.076;2022-12-18T07:42:17;-7.50;94.10
12291;DHT22;6208;48.956;9.076;2022-12-18T07:45:17;-7.20;94.10
12291;DHT22;6208;48.956;9.076;2022-12-18T07:48:01;-7.10;92.80
12291;DHT22;6208;48.956;9.076;2022-12-18T07:50:45;-4.40;94.70
12291;DHT22;6208;48.956;9.076;2022-12-18T07:53:31;-6.50;93.50
12291;DHT22;6208;48.956;9.076;2022-12-18T07:56:15;-7.30;93.40
12291;DHT22;6208;48.956;9.076;2022-12-18T07:58:59;-7.10;92.90
12291;DHT22;6208;48.956;9.076;2022-12-18T08:01:47;-7.10;93.00
12291;DHT22;6208;48.956;9.076;2022-12-18T08:04:31;-7.00;93.30
12291;DHT22;6208;48.956;9.076;2022-12-18T08:07:18;-6.80;93.30
12291;DHT22;6208;48.956;9.076;2022-12-18T08:10:03;-6.60;92.70
12291;DHT22;6208;48.956;9.076;2022-12-18T08:12:51;-6.80;92.50
12291;DHT22;6208;48.956;9.076;2022-12-18T08:15:35;-6.90;93.30
12291;DHT22;6208;48.956;9.076;2022-12-18T08:18:19;-4.30;94.60
12291;DHT22;6208;48.956;9.076;2022-12-18T08:21:15;-6.60;94.00
12291;DHT22;6208;48.956;9.076;2022-12-18T08:24:00;-6.60;93.80
12291;DHT22;6208;48.956;9.076;2022-12-18T08:26:45;-6.40;93.60
12291;DHT22;6208;48.956;9.076;2022-12-18T08:29:29;-6.40;93.30
12291;DHT22;6208;48.956;9.076;2022-12-18T08:32:14;-6.20;93.30
12291;DHT22;6208;48.956;9.076;2022-12-18T08:34:58;-6.30;93.70
12291;DHT22;6208;48.956;9.076;2022-12-18T08:37:43;-6.30;93.70
12291;DHT22;6208;48.956;9.076;2022-12-18T08:40:27;-6.30;93.80
12291;DHT22;6208;48.956;9.076;2022-12-18T08:43:11;-6.40;94.50
12291;DHT22;6208;48.956;9.076;2022-12-18T08:46:17;-6.40;94.70
12291;DHT22;6208;48.956;9.076;2022-12-18T08:49:02;-6.50;94.80
12291;DHT22;6208;48.956;9.076;2022-12-18T08:51:46;-6.40;95.10
12291;DHT22;6208;48.956;9.076;2022-12-18T08:54:30;-6.30;95.10
12291;DHT22;6208;48.956;9.076;2022-12-18T08:57:15;-6.10;95.00
12291;DHT22;6208;48.956;9.076;2022-12-18T09:00:00;-6.10;94.70
12291;DHT22;6208;48.956;9.076;2022-12-18T09:02:44;-6.00;94.80
12291;DHT22;6208;48.956;9.076;2022-12-18T09:05:28;-5.90;94.70
12291;DHT22;6208;48.956;9.076;2022-12-18T09:08:12;-6.00;94.80
12291;DHT22;6208;48.956;9.076;2022-12-18T09:10:56;-6.00;95.30
12291;DHT22;6208;48.956;9.076;2022-12-18T09:13:40;-4.70;95.90
12291;DHT22;6208;48.956;9.076;2022-12-18T09:16:26;-6.10;95.60
12291;DHT22;6208;48.956;9.076;2022-12-18T09:19:13;-6.10;96.00
12291;DHT22;6208;48.956;9.076;2022-12-18T09:21:57;-4.30;97.20
12291;DHT22;6208;48.956;9.076;2022-12-18T09:24:41;-5.70;96.00
12291;DHT22;6208;48.956;9.076;2022-12-18T09:27:25;-5.60;95.70
12291;DHT22;6208;48.956;9.076;2022-12-18T09:30:10;-5.60;95.70
12291;DHT22;6208;48.956;9.076;2022-12-18T09:32:55;-5.70;96.00
12291;DHT22;6208;48.956;9.076;2022-12-18T09:35:41;-5.70;96.40
12291;DHT22;6208;48.956;9.076;2022-12-18T09:38:26;-5.50;96.50
12291;DHT22;6208;48.956;9.076;2022-12-18T09:44:25;-5.40;96.30
12291;DHT22;6208;48.956;9.076;2022-12-18T09:47:18;-5.30;96.40
12291;DHT22;6208;48.956;9.076;2022-12-18T09:50:15;-5.20;96.10
12291;DHT22;6208;48.956;9.076;2022-12-18T09:53:17;-5.10;96.10
12291;DHT22;6208;48.956;9.076;2022-12-18T09:56:04;-4.90;96.10
12291;DHT22;6208;48.956;9.076;2022-12-18T09:58:59;-4.80;96.10
12291;DHT22;6208;48.956;9.076;2022-12-18T10:01:44;-4.70;96.10
12291;DHT22;6208;48.956;9.076;2022-12-18T10:04:30;-4.70;96.10
12291;DHT22;6208;48.956;9.076;2022-12-18T10:07:25;-4.50;95.90
12291;DHT22;6208;48.956;9.076;2022-12-18T10:16:32;-4.30;96.80
12291;DHT22;6208;48.956;9.076;2022-12-18T10:19:50;-4.20;96.70
12291;DHT22;6208;48.956;9.076;2022-12-18T10:22:53;-4.10;96.70
12291;DHT22;6208;48.956;9.076;2022-12-18T10:28:36;-4.10;96.60
12291;DHT22;6208;48.956;9.076;2022-12-18T10:31:24;-3.90;96.90
12291;DHT22;6208;48.956;9.076;2022-12-18T10:34:21;-3.70;96.60
12291;DHT22;6208;48.956;9.076;2022-12-18T10:37:11;-3.90;96.60
12291;DHT22;6208;48.956;9.076;2022-12-18T10:40:14;-3.80;97.20
12291;DHT22;6208;48.956;9.076;2022-12-18T10:43:13;-3.60;96.90
12291;DHT22;6208;48.956;9.076;2022-12-18T10:46:02;-3.40;96.60
12291;DHT22;6208;48.956;9.076;2022-12-18T10:51:36;-3.50;96.70
12291;DHT22;6208;48.956;9.076;2022-12-18T10:54:22;-3.40;96.90
12291;DHT22;6208;48.956;9.076;2022-12-18T10:57:33;-3.30;96.90
12291;DHT22;6208;48.956;9.076;2022-12-18T11:00:24;-3.20;96.60
12291;DHT22;6208;48.956;9.076;2022-12-18T11:03:42;-3.10;96.40
12291;DHT22;6208;48.956;9.076;2022-12-18T11:06:26;-3.20;96.60
12291;DHT22;6208;48.956;9.076;2022-12-18T11:09:23;-3.10;96.80
12291;DHT22;6208;48.956;9.076;2022-12-18T11:12:17;-3.00;96.90
12291;DHT22;6208;48.956;9.076;2022-12-18T11:15:02;-3.10;97.20
12291;DHT22;6208;48.956;9.076;2022-12-18T11:17:48;-2.80;97.00
12291;DHT22;6208;48.956;9.076;2022-12-18T11:20:35;-2.80;97.00
12291;DHT22;6208;48.956;9.076;2022-12-18T11:23:21;-2.60;96.60
12291;DHT22;6208;48.956;9.076;2022-12-18T11:26:09;-2.50;96.50
12291;DHT22;6208;48.956;9.076;2022-12-18T11:29:09;-2.20;96.20
12291;DHT22;6208;48.956;9.076;2022-12-18T11:38:42;-1.90;95.70
12291;DHT22;6208;48.956;9.076;2022-12-18T11:41:34;-1.80;95.30
12291;DHT22;6208;48.956;9.076;2022-12-18T11:44:58;-1.80;95.30
12291;DHT22;6208;48.956;9.076;2022-12-18T11:53:21;-1.60;95.20
12291;DHT22;6208;48.956;9.076;2022-12-18T11:59:37;-1.50;94.80
12291;DHT22;6208;48.956;9.076;2022-12-18T12:02:47;-1.40;94.90
12291;DHT22;6208;48.956;9.076;2022-12-18T12:06:07;-1.40;94.50
12291;DHT22;6208;48.956;9.076;2022-12-18T12:09:18;-1.70;95.00
12291;DHT22;6208;48.956;9.076;2022-12-18T12:15:17;-1.60;95.50
12291;DHT22;6208;48.956;9.076;2022-12-18T12:18:19;-1.50;95.70
12291;DHT22;6208;48.956;9.076;2022-12-18T12:21:28;-1.30;95.40
12291;DHT22;6208;48.956;9.076;2022-12-18T12:34:01;-1.40;95.10
12291;DHT22;6208;48.956;9.076;2022-12-18T12:39:53;-1.00;94.80
12291;DHT22;6208;48.956;9.076;2022-12-18T12:42:51;-1.00;95.00
12291;DHT22;6208;48.956;9.076;2022-12-18T12:49:01;-1.00;94.80
12291;DHT22;6208;48.956;9.076;2022-12-18T12:51:56;-1.00;94.70
12291;DHT22;6208;48.956;9.076;2022-12-18T12:54:45;-0.90;94.60
12291;DHT22;6208;48.956;9.076;2022-12-18T12:57:52;-0.70;94.10
12291;DHT22;6208;48.956;9.076;2022-12-18T13:09:33;-0.60;93.90
12291;DHT22;6208;48.956;9.076;2022-12-18T13:12:19;-0.40;94.00
12291;DHT22;6208;48.956;9.076;2022-12-18T13:15:33;-0.50;93.70
12291;DHT22;6208;48.956;9.076;2022-12-18T13:18:22;-0.40;93.50
12291;DHT22;6208;48.956;9.076;2022-12-18T13:21:29;-0.30;93.50
12291;DHT22;6208;48.956;9.076;2022-12-18T13:24:27;-0.40;93.30
12291;DHT22;6208;48.956;9.076;2022-12-18T13:36:31;-0.30;93.60
12291;DHT22;6208;48.956;9.076;2022-12-18T13:39:32;-0.30;93.50
12291;DHT22;6208;48.956;9.076;2022-12-18T13:45:41;0.70;94.20
12291;DHT22;6208;48.956;9.076;2022-12-18T13:48:27;-0.30;94.00
12291;DHT22;6208;48.956;9.076;2022-12-18T13:51:17;-0.30;93.60
12291;DHT22;6208;48.956;9.076;2022-12-18T13:54:13;-0.40;93.50
12291;DHT22;6208;48.956;9.076;2022-12-18T13:56:57;-0.30;93.40
12291;DHT22;6208;48.956;9.076;2022-12-18T13:59:41;-0.40;93.60
12291;DHT22;6208;48.956;9.076;2022-12-18T14:02:27;-0.40;94.00
12291;DHT22;6208;48.956;9.076;2022-12-18T14:05:43;-0.50;93.70
12291;DHT22;6208;48.956;9.076;2022-12-18T14:08:33;-0.40;93.70
12291;DHT22;6208;48.956;9.076;2022-12-18T14:11:22;-0.40;93.70
12291;DHT22;6208;48.956;9.076;2022-12-18T14:14:07;1.30;94.50
12291;DHT22;6208;48.956;9.076;2022-12-18T14:16:52;-0.50;93.70
12291;DHT22;6208;48.956;9.076;2022-12-18T14:19:36;-0.50;93.40
12291;DHT22;6208;48.956;9.076;2022-12-18T14:22:24;-0.60;93.70
12291;DHT22;6208;48.956;9.076;2022-12-18T14:28:23;-0.60;93.90
12291;DHT22;6208;48.956;9.076;2022-12-18T14:31:18;1.00;94.30
12291;DHT22;6208;48.956;9.076;2022-12-18T14:34:02;-0.40;93.30
12291;DHT22;6208;48.956;9.076;2022-12-18T14:36:53;-0.50;93.40
12291;DHT22;6208;48.956;9.076;2022-12-18T14:39:39;-0.50;93.20
12291;DHT22;6208;48.956;9.076;2022-12-18T14:42:25;-0.60;93.40
12291;DHT22;6208;48.956;9.076;2022-12-18T14:45:35;-0.50;93.40
12291;DHT22;6208;48.956;9.076;2022-12-18T14:48:39;-0.60;93.40
12291;DHT22;6208;48.956;9.076;2022-12-18T14:51:28;-0.60;93.40
12291;DHT22;6208;48.956;9.076;2022-12-18T14:54:17;-0.60;93.40
12291;DHT22;6208;48.956;9.076;2022-12-18T15:00:10;-0.60;93.70
12291;DHT22;6208;48.956;9.076;2022-12-18T15:02:59;-0.70;93.60
12291;DHT22;6208;48.956;9.076;2022-12-18T15:05:43;-0.70;93.70
12291;DHT22;6208;48.956;9.076;2022-12-18T15:08:30;-0.30;94.10
12291;DHT22;6208;48.956;9.076;2022-12-18T15:11:35;-1.00;94.10
12291;DHT22;6208;48.956;9.076;2022-12-18T15:17:20;-1.00;94.20
12291;DHT22;6208;48.956;9.076;2022-12-18T15:20:10;-1.00;94.50
12291;DHT22;6208;48.956;9.076;2022-12-18T15:22:55;-0.80;94.30
12291;DHT22;6208;48.956;9.076;2022-12-18T15:25:39;-0.90;94.20
12291;DHT22;6208;48.956;9.076;2022-12-18T15:28:32;-0.90;94.20
12291;DHT22;6208;48.956;9.076;2022-12-18T15:34:22;1.50;95.30
12291;DHT22;6208;48.956;9.076;2022-12-18T15:37:07;-0.80;94.20
12291;DHT22;6208;48.956;9.076;2022-12-18T15:39:52;-1.00;94.40
12291;DHT22;6208;48.956;9.076;2022-12-18T15:42:36;-1.10;94.60
12291;DHT22;6208;48.956;9.076;2022-12-18T15:45:39;-1.30;95.00
12291;DHT22;6208;48.956;9.076;2022-12-18T15:48:23;-1.30;95.50
12291;DHT22;6208;48.956;9.076;2022-12-18T15:51:19;-1.20;95.90
12291;DHT22;6208;48.956;9.076;2022-12-18T15:54:08;-1.10;95.70
12291;DHT22;6208;48.956;9.076;2022-12-18T15:56:53;-0.90;95.40
12291;DHT22;6208;48.956;9.076;2022-12-18T15:59:56;0.00;96.00
12291;DHT22;6208;48.956;9.076;2022-12-18T16:02:42;-0.90;95.20
12291;DHT22;6208;48.956;9.076;2022-12-18T16:05:27;-1.00;95.40
12291;DHT22;6208;48.956;9.076;2022-12-18T16:08:11;-0.90;95.20
12291;DHT22;6208;48.956;9.076;2022-12-18T16:10:56;-1.00;95.10
12291;DHT22;6208;48.956;9.076;2022-12-18T16:13:40;-1.10;95.20
12291;DHT22;6208;48.956;9.076;2022-12-18T16:16:24;-1.20;95.40
12291;DHT22;6208;48.956;9.076;2022-12-18T16:19:08;-1.20;95.60
12291;DHT22;6208;48.956;9.076;2022-12-18T16:21:55;-1.20;95.60
12291;DHT22;6208;48.956;9.076;2022-12-18T16:24:40;-1.20;95.60
12291;DHT22;6208;48.956;9.076;2022-12-18T16:27:26;-1.40;95.80
12291;DHT22;6208;48.956;9.076;2022-12-18T16:30:15;-1.30;95.90
12291;DHT22;6208;48.956;9.076;2022-12-18T16:33:00;-1.40;95.80
12291;DHT22;6208;48.956;9.076;2022-12-18T16:35:51;-1.20;95.60
12291;DHT22;6208;48.956;9.076;2022-12-18T16:38:36;-1.10;95.20
12291;DHT22;6208;48.956;9.076;2022-12-18T16:41:20;-1.10;95.10
12291;DHT22;6208;48.956;9.076;2022-12-18T16:44:17;-1.00;94.90
12291;DHT22;6208;48.956;9.076;2022-12-18T16:47:01;-1.00;94.60
12291;DHT22;6208;48.956;9.076;2022-12-18T16:49:46;-1.00;94.50
12291;DHT22;6208;48.956;9.076;2022-12-18T16:52:30;-1.10;94.60
12291;DHT22;6208;48.956;9.076;2022-12-18T16:55:15;-1.10;94.70
12291;DHT22;6208;48.956;9.076;2022-12-18T16:57:59;-1.10;94.70
12291;DHT22;6208;48.956;9.076;2022-12-18T17:00:43;-1.20;94.50
12291;DHT22;6208;48.956;9.076;2022-12-18T17:03:28;-1.10;94.60
12291;DHT22;6208;48.956;9.076;2022-12-18T17:06:13;-1.10;94.60
12291;DHT22;6208;48.956;9.076;2022-12-18T17:08:59;-1.10;94.60
12291;DHT22;6208;48.956;9.076;2022-12-18T17:11:44;-1.20;94.70
12291;DHT22;6208;48.956;9.076;2022-12-18T17:14:28;-1.20;95.00
12291;DHT22;6208;48.956;9.076;2022-12-18T17:17:12;-1.20;95.10
12291;DHT22;6208;48.956;9.076;2022-12-18T17:19:57;-1.20;95.20
12291;DHT22;6208;48.956;9.076;2022-12-18T17:22:41;-1.30;95.50
12291;DHT22;6208;48.956;9.076;2022-12-18T17:25:25;-1.30;95.50
12291;DHT22;6208;48.956;9.076;2022-12-18T17:28:09;-1.30;95.50
12291;DHT22;6208;48.956;9.076;2022-12-18T17:30:54;-1.40;95.60
12291;DHT22;6208;48.956;9.076;2022-12-18T17:33:39;-0.10;96.20
12291;DHT22;6208;48.956;9.076;2022-12-18T17:36:24;-1.30;95.70
12291;DHT22;6208;48.956;9.076;2022-12-18T17:39:16;-1.30;95.60
12291;DHT22;6208;48.956;9.076;2022-12-18T17:42:01;-1.30;95.50
12291;DHT22;6208;48.956;9.076;2022-12-18T17:44:45;-1.30;95.80
12291;DHT22;6208;48.956;9.076;2022-12-18T17:47:29;-1.30;95.60
12291;DHT22;6208;48.956;9.076;2022-12-18T17:50:13;-1.20;95.50
12291;DHT22;6208;48.956;9.076;2022-12-18T17:52:58;-1.20;95.40
12291;DHT22;6208;48.956;9.076;2022-12-18T17:55:42;0.80;96.30
12291;DHT22;6208;48.956;9.076;2022-12-18T17:58:27;-1.20;95.50
12291;DHT22;6208;48.956;9.076;2022-12-18T18:01:13;-1.20;95.70
12291;DHT22;6208;48.956;9.076;2022-12-18T18:03:58;-1.20;95.70
12291;DHT22;6208;48.956;9.076;2022-12-18T18:06:43;-1.20;95.90
12291;DHT22;6208;48.956;9.076;2022-12-18T18:09:27;-1.10;95.70
12291;DHT22;6208;48.956;9.076;2022-12-18T18:12:11;-1.10;95.40
12291;DHT22;6208;48.956;9.076;2022-12-18T18:15:14;-1.20;95.20
12291;DHT22;6208;48.956;9.076;2022-12-18T18:17:59;0.00;95.80
12291;DHT22;6208;48.956;9.076;2022-12-18T18:20:43;1.10;96.50
12291;DHT22;6208;48.956;9.076;2022-12-18T18:23:28;-1.30;95.20
12291;DHT22;6208;48.956;9.076;2022-12-18T18:26:14;-1.40;95.00
12291;DHT22;6208;48.956;9.076;2022-12-18T18:28:59;-1.40;95.10
12291;DHT22;6208;48.956;9.076;2022-12-18T18:31:44;-1.50;95.20
12291;DHT22;6208;48.956;9.076;2022-12-18T18:34:30;-1.50;95.30
12291;DHT22;6208;48.956;9.076;2022-12-18T18:37:15;-1.50;95.40
12291;DHT22;6208;48.956;9.076;2022-12-18T18:39:59;-1.50;95.40
12291;DHT22;6208;48.956;9.076;2022-12-18T18:42:43;-1.50;95.50
12291;DHT22;6208;48.956;9.076;2022-12-18T18:45:27;-1.50;95.40
12291;DHT22;6208;48.956;9.076;2022-12-18T18:48:11;-1.50;95.50
12291;DHT22;6208;48.956;9.076;2022-12-18T18:51:07;-1.40;95.60
12291;DHT22;6208;48.956;9.076;2022-12-18T18:53:52;-1.40;95.40
12291;DHT22;6208;48.956;9.076;2022-12-18T18:56:36;-0.70;95.70
12291;DHT22;6208;48.956;9.076;2022-12-18T18:59:21;1.20;96.50
12291;DHT22;6208;48.956;9.076;2022-12-18T19:02:07;-1.30;95.50
12291;DHT22;6208;48.956;9.076;2022-12-18T19:04:52;-1.30;95.50
12291;DHT22;6208;48.956;9.076;2022-12-18T19:07:36;-1.20;95.40
12291;DHT22;6208;48.956;9.076;2022-12-18T19:10:20;-1.20;95.50
12291;DHT22;6208;48.956;9.076;2022-12-18T19:13:04;-1.20;95.10
12291;DHT22;6208;48.956;9.076;2022-12-18T19:16:08;-1.20;95.00
12291;DHT22;6208;48.956;9.076;2022-12-18T19:18:54;-1.20;95.20
12291;DHT22;6208;48.956;9.076;2022-12-18T19:21:39;-1.30;95.50
12291;DHT22;6208;48.956;9.076;2022-12-18T19:24:24;-1.40;95.50
12291;DHT22;6208;48.956;9.076;2022-12-18T19:27:11;-1.40;95.50
12291;DHT22;6208;48.956;9.076;2022-12-18T19:29:55;-1.60;95.60
12291;DHT22;6208;48.956;9.076;2022-12-18T19:32:39;-1.50;96.00
12291;DHT22;6208;48.956;9.076;2022-12-18T19:35:23;-1.70;96.20
12291;DHT22;6208;48.956;9.076;2022-12-18T19:38:07;-1.70;96.00
12291;DHT22;6208;48.956;9.076;2022-12-18T19:40:52;-1.60;96.10
12291;DHT22;6208;48.956;9.076;2022-12-18T19:43:37;-1.70;96.10